Date,TemperatureHighF,TemperatureAvgF,TemperatureLowF,DewpointHighF,DewpointAvgF,DewpointLowF,HumidityHigh,HumidityAvg,HumidityLow,PressureMaxIn,PressureMinIn,WindSpeedMaxMPH,WindSpeedAvgMPH,GustSpeedMaxMPH,PrecipitationSumIn
2013-1-1,55,47,39,-100,-100,-100,0,0,100,0.00,40.00,0,-999,0,0.00
2013-1-2,58,49,37,-100,-100,-100,0,0,100,0.00,40.00,0,-999,0,0.00
2013-1-3,58,48,36,-100,-100,-100,0,0,100,0.00,40.00,0,-999,0,0.00
2013-1-4,58,49,37,-100,-100,-100,0,0,100,0.00,40.00,0,-999,0,0.00
2013-1-5,55,47,40,-100,-100,-100,0,0,100,0.00,40.00,0,-999,0,0.00
2013-1-6,54,49,44,-100,-100,-100,0,0,100,0.00,40.00,0,-999,0,0.00
2013-1-7,53,45,40,-100,-100,-100,0,0,100,0.00,40.00,0,-999,0,0.00
2013-1-8,60,49,40,-100,-100,-100,0,0,100,0.00,40.00,0,-999,0,0.00
2013-1-9,53,49,44,-100,-100,-100,0,0,100,0.00,40.00,0,-999,0,0.00
2013-1-10,54,44,36,-100,-100,-100,0,0,100,0.00,40.00,0,-999,0,0.00
2013-1-11,54,43,34,-100,-100,-100,0,0,100,0.00,40.00,0,-999,0,0.00
2013-1-12,50,43,36,-100,-100,-100,0,0,100,0.00,40.00,0,-999,0,0.00
2013-1-13,47,42,32,-100,-100,-100,0,0,100,0.00,40.00,0,-999,0,0.00
2013-1-14,54,43,35,-100,-100,-100,0,0,100,0.00,40.00,0,-999,0,0.00
2013-1-15,56,42,35,-100,-100,-100,0,0,100,0.00,40.00,0,-999,0,0.00
2013-1-16,62,49,35,-100,-100,-100,0,0,100,0.00,40.00,0,-999,0,0.00
2013-1-17,66,47,35,-100,-100,-100,0,0,100,0.00,40.00,0,-999,0,0.00
2013-1-18,63,49,37,-100,-100,-100,0,0,100,0.00,40.00,0,-999,0,0.00
2013-1-19,64,46,38,-100,-100,-100,0,0,100,0.00,40.00,0,-999,0,0.00
2013-1-20,65,48,37,-100,-100,-100,0,0,100,0.00,40.00,0,-999,0,0.00
2013-1-21,66,50,39,-100,-100,-100,0,0,100,0.00,40.00,0,-999,0,0.00
2013-1-22,64,53,40,-100,-100,-100,0,0,100,0.00,40.00,0,-999,0,0.00
2013-1-23,61,53,48,-100,-100,-100,0,0,100,0.00,40.00,0,-999,0,0.00
2013-1-24,58,55,51,-100,-100,-100,0,0,100,0.00,40.00,0,-999,0,0.00
2013-1-25,69,61,55,-100,-100,-100,0,0,100,0.00,40.00,0,-999,0,0.00
2013-1-26,64,57,49,-100,-100,-100,0,0,100,0.00,40.00,0,-999,0,0.00
2013-1-27,58,51,40,-100,-100,-100,0,0,100,0.00,40.00,0,-999,0,0.00
2013-1-28,61,52,39,-100,-100,-100,0,0,100,0.00,40.00,0,-999,0,0.00
2013-1-29,62,53,43,-100,-100,-100,0,0,100,0.00,40.00,0,-999,0,0.00
2013-1-30,64,54,41,-100,-100,-100,0,0,100,0.00,40.00,0,-999,0,0.00
2013-1-31,68,58,43,-100,-100,-100,0,0,100,0.00,40.00,0,-999,0,0.00
2013-2-1,71,59,43,-100,-100,-100,0,0,100,0.00,40.00,0,-999,0,0.00
2013-2-2,70,58,48,-100,-100,-100,0,0,100,0.00,40.00,0,-999,0,0.00
2013-2-3,69,54,43,-100,-100,-100,0,0,100,0.00,40.00,0,-999,0,0.00
2013-2-4,66,55,44,-100,-100,-100,0,0,100,0.00,40.00,0,-999,0,0.00
2013-2-5,61,51,43,-100,-100,-100,0,0,100,0.00,40.00,0,-999,0,0.00
2013-2-6,65,52,43,-100,-100,-100,0,0,100,0.00,40.00,0,-999,0,0.00
2013-2-7,61,50,44,-100,-100,-100,0,0,100,0.00,40.00,0,-999,0,0.00
2013-2-8,60,52,41,-100,-100,-100,0,0,100,0.00,40.00,0,-999,0,0.00
2013-2-9,60,48,39,-100,-100,-100,0,0,100,0.00,40.00,0,-999,0,0.00
2013-2-10,65,51,39,-100,-100,-100,0,0,100,0.00,40.00,0,-999,0,0.00
2013-2-11,63,52,40,-100,-100,-100,0,0,100,0.00,40.00,0,-999,0,0.00
2013-2-12,65,54,40,-100,-100,-100,0,0,100,0.00,40.00,0,-999,0,0.00
2013-2-13,66,53,43,-100,-100,-100,0,0,100,0.00,40.00,0,-999,0,0.00
2013-2-14,69,56,43,-100,-100,-100,0,0,100,0.00,40.00,0,-999,0,0.00
2013-2-15,74,61,47,-100,-100,-100,0,0,100,0.00,40.00,0,-999,0,0.00
2013-2-16,72,56,48,-100,-100,-100,0,0,100,0.00,40.00,0,-999,0,0.00
2013-2-17,69,57,45,-100,-100,-100,0,0,100,0.00,40.00,0,-999,0,0.00
2013-2-18,61,52,43,-100,-100,-100,0,0,100,0.00,40.00,0,-999,0,0.00
2013-2-19,51,46,41,-100,-100,-100,0,0,100,0.00,40.00,0,-999,0,0.00
2013-2-20,62,50,38,-100,-100,-100,0,0,100,0.00,40.00,0,-999,0,0.00
2013-2-21,64,52,41,-100,-100,-100,0,0,100,0.00,40.00,0,-999,0,0.00
2013-2-22,66,52,40,-100,-100,-100,0,0,100,0.00,40.00,0,-999,0,0.00
2013-2-23,63,56,48,-100,-100,-100,0,0,100,0.00,40.00,0,-999,0,0.00
2013-2-24,66,54,43,-100,-100,-100,0,0,100,0.00,40.00,0,-999,0,0.00
2013-2-25,66,56,43,-100,-100,-100,0,0,100,0.00,40.00,0,-999,0,0.00
2013-2-26,69,58,44,-100,-100,-100,0,0,100,0.00,40.00,0,-999,0,0.00
2013-2-27,72,58,41,-100,-100,-100,0,0,100,0.00,40.00,0,-999,0,0.00
2013-2-28,74,61,48,-100,-100,-100,0,0,100,0.00,40.00,0,-999,0,0.00
2013-3-1,77,62,47,-100,-100,-100,0,0,100,0.00,40.00,0,-999,0,0.00
2013-3-2,75,65,54,-100,-100,-100,0,0,100,0.00,40.00,0,-999,0,0.00
2013-3-3,69,63,55,-100,-100,-100,0,0,100,0.00,40.00,0,-999,0,0.00
2013-3-4,67,57,49,-100,-100,-100,0,0,100,0.00,40.00,0,-999,0,0.00
2013-3-5,63,56,49,-100,-100,-100,0,0,100,0.00,40.00,0,-999,0,0.00
2013-3-6,62,56,51,-100,-100,-100,0,0,100,0.00,40.00,0,-999,0,0.00
2013-3-7,62,54,44,-100,-100,-100,0,0,100,0.00,40.00,0,-999,0,0.00
2013-3-8,69,55,44,-100,-100,-100,0,0,100,0.00,40.00,0,-999,0,0.00
2013-3-9,73,57,44,-100,-100,-100,0,0,100,0.00,40.00,0,-999,0,0.00
2013-3-10,69,61,46,-100,-100,-100,0,0,100,0.00,40.00,0,-999,0,0.00
2013-3-11,74,63,48,-100,-100,-100,0,0,100,0.00,40.00,0,-999,0,0.00
2013-3-12,80,67,53,-100,-100,-100,0,0,100,0.00,40.00,0,-999,0,0.00
2013-3-13,80,70,56,-100,-100,-100,0,0,100,0.00,40.00,0,-999,0,0.00
2013-3-14,83,70,57,-100,-100,-100,0,0,100,0.00,40.00,0,-999,0,0.00
2013-3-15,80,69,54,-100,-100,-100,0,0,100,0.00,40.00,0,-999,0,0.00
2013-3-16,82,67,52,-100,-100,-100,0,0,100,0.00,40.00,0,-999,0,0.00
2013-3-17,74,66,52,-100,-100,-100,0,0,100,0.00,40.00,0,-999,0,0.00
2013-3-18,73,63,48,-100,-100,-100,0,0,100,0.00,40.00,0,-999,0,0.00
2013-3-19,74,64,54,-100,-100,-100,0,0,100,0.00,40.00,0,-999,0,0.00
2013-3-20,66,60,54,-100,-100,-100,0,0,100,0.00,40.00,0,-999,0,0.00
2013-3-21,70,60,48,-100,-100,-100,0,0,100,0.00,40.00,0,-999,0,0.00
2013-3-22,69,60,50,-100,-100,-100,0,0,100,0.00,40.00,0,-999,0,0.00
2013-3-23,73,59,46,-100,-100,-100,0,0,100,0.00,40.00,0,-999,0,0.00
2013-3-24,77,66,48,-100,-100,-100,0,0,100,0.00,40.00,0,-999,0,0.00
2013-3-25,72,61,54,-100,-100,-100,0,0,100,0.00,40.00,0,-999,0,0.00
2013-3-26,76,63,50,-100,-100,-100,0,0,100,0.00,40.00,0,-999,0,0.00
2013-3-27,72,63,53,-100,-100,-100,0,0,100,0.00,40.00,0,-999,0,0.00
2013-3-28,74,66,58,-100,-100,-100,0,0,100,0.00,40.00,0,-999,0,0.00
2013-3-29,83,68,55,-100,-100,-100,0,0,100,0.00,40.00,0,-999,0,0.00
2013-3-30,78,69,58,-100,-100,-100,0,0,100,0.00,40.00,0,-999,0,0.00
2013-3-31,73,64,58,-100,-100,-100,0,0,100,0.00,40.00,0,-999,0,0.00
2013-4-1,73,64,58,-100,-100,-100,0,0,100,0.00,40.00,0,-999,0,0.00
2013-4-2,76,65,54,-100,-100,-100,0,0,100,0.00,40.00,0,-999,0,0.00
2013-4-3,79,68,55,-100,-100,-100,0,0,100,0.00,40.00,0,-999,0,0.00
2013-4-4,69,64,56,-100,-100,-100,0,0,100,0.00,40.00,0,-999,0,0.00
2013-4-5,71,64,57,-100,-100,-100,0,0,100,0.00,40.00,0,-999,0,0.00
2013-4-6,72,63,54,-100,-100,-100,0,0,100,0.00,40.00,0,-999,0,0.00
2013-4-7,70,62,54,-100,-100,-100,0,0,100,0.00,40.00,0,-999,0,0.00
2013-4-8,71,63,54,-100,-100,-100,0,0,100,0.00,40.00,0,-999,0,0.00
2013-4-9,78,65,52,-100,-100,-100,0,0,100,0.00,40.00,0,-999,0,0.00
2013-4-10,91,75,58,-100,-100,-100,0,0,100,0.00,40.00,0,-999,0,0.00
2013-4-11,83,73,59,-100,-100,-100,0,0,100,0.00,40.00,0,-999,0,0.00
2013-4-12,87,68,52,-100,-100,-100,0,0,100,0.00,40.00,0,-999,0,0.00
2013-4-13,81,66,54,-100,-100,-100,0,0,100,0.00,40.00,0,-999,0,0.00
2013-4-14,77,67,53,-100,-100,-100,0,0,100,0.00,40.00,0,-999,0,0.00
2013-4-15,68,58,51,-100,-100,-100,0,0,100,0.00,40.00,0,-999,0,0.00
2013-4-16,71,61,50,-100,-100,-100,0,0,100,0.00,40.00,0,-999,0,0.00
2013-4-17,73,62,48,-100,-100,-100,0,0,100,0.00,40.00,0,-999,0,0.00
2013-4-18,80,67,51,-100,-100,-100,0,0,100,0.00,40.00,0,-999,0,0.00
2013-4-19,87,71,54,-100,-100,-100,0,0,100,0.00,40.00,0,-999,0,0.00
2013-4-20,87,73,62,-100,-100,-100,0,0,100,0.00,40.00,0,-999,0,0.00
2013-4-21,90,75,56,-100,-100,-100,0,0,100,0.00,40.00,0,-999,0,0.00
2013-4-22,93,80,64,-100,-100,-100,0,0,100,0.00,40.00,0,-999,0,0.00
2013-4-23,89,76,64,-100,-100,-100,0,0,100,0.00,40.00,0,-999,0,0.00
2013-4-24,93,74,57,-100,-100,-100,0,0,100,0.00,40.00,0,-999,0,0.00
2013-4-25,77,65,55,-100,-100,-100,0,0,100,0.00,40.00,0,-999,0,0.00
2013-4-26,87,66,54,-100,-100,-100,0,0,100,0.00,40.00,0,-999,0,0.00
2013-4-27,92,72,55,-100,-100,-100,0,0,100,0.00,40.00,0,-999,0,0.00
2013-4-28,96,79,60,-100,-100,-100,0,0,100,0.00,40.00,0,-999,0,0.00
2013-4-29,94,77,66,-100,-100,-100,0,0,100,0.00,40.00,0,-999,0,0.00
2013-4-30,87,80,69,-100,-100,-100,0,0,100,0.00,40.00,0,-999,0,0.00
2013-5-1,93,81,64,-100,-100,-100,0,0,100,0.00,40.00,0,-999,0,0.00
2013-5-2,94,78,62,-100,-100,-100,0,0,100,0.00,40.00,0,-999,0,0.00
2013-5-3,97,81,64,-100,-100,-100,0,0,100,0.00,40.00,0,-999,0,0.00
2013-5-4,94,79,65,-100,-100,-100,0,0,100,0.00,40.00,0,-999,0,0.00
2013-5-5,79,68,59,-100,-100,-100,0,0,100,0.00,40.00,0,-999,0,0.00
2013-5-6,78,69,63,-100,-100,-100,0,0,100,0.00,40.00,0,-999,0,0.00
2013-5-7,78,71,62,-100,-100,-100,0,0,100,0.00,40.00,0,-999,0,0.00
2013-5-8,78,68,61,-100,-100,-100,0,0,100,0.00,40.00,0,-999,0,0.00
2013-5-9,86,69,57,-100,-100,-100,0,0,100,0.00,40.00,0,-999,0,0.00
2013-5-10,91,73,57,-100,-100,-100,0,0,100,0.00,40.00,0,-999,0,0.00
2013-5-11,98,81,63,-100,-100,-100,0,0,100,0.00,40.00,0,-999,0,0.00
2013-5-12,97,85,68,-100,-100,-100,0,0,100,0.00,40.00,0,-999,0,0.00
2013-5-13,95,80,63,-100,-100,-100,0,0,100,0.00,40.00,0,-999,0,0.00
2013-5-14,92,79,62,-100,-100,-100,0,0,100,0.00,40.00,0,-999,0,0.00
2013-5-15,82,71,59,-100,-100,-100,0,0,100,0.00,40.00,0,-999,0,0.00
2013-5-16,80,68,62,-100,-100,-100,0,0,100,0.00,40.00,0,-999,0,0.00
2013-5-17,80,68,56,-100,-100,-100,0,0,100,0.00,40.00,0,-999,0,0.00
2013-5-18,88,72,54,-100,-100,-100,0,0,100,0.00,40.00,0,-999,0,0.00
2013-5-19,89,78,65,-100,-100,-100,0,0,100,0.00,40.00,0,-999,0,0.00
2013-5-20,96,83,69,-100,-100,-100,0,0,100,0.00,40.00,0,-999,0,0.00
2013-5-21,86,74,63,-100,-100,-100,0,0,100,0.00,40.00,0,-999,0,0.00
2013-5-22,76,64,55,-100,-100,-100,0,0,100,0.00,40.00,0,-999,0,0.00
2013-5-23,79,67,53,-100,-100,-100,0,0,100,0.00,40.00,0,-999,0,0.00
2013-5-24,83,70,54,-100,-100,-100,0,0,100,0.00,40.00,0,-999,0,0.00
2013-5-25,82,69,56,-100,-100,-100,0,0,100,0.00,40.00,0,-999,0,0.00
2013-5-26,83,70,55,-100,-100,-100,0,0,100,0.00,40.00,0,-999,0,0.00
2013-5-27,72,65,57,-100,-100,-100,0,0,100,0.00,40.00,0,-999,0,0.00
2013-5-28,83,72,62,-100,-100,-100,0,0,100,0.00,40.00,0,-999,0,0.00
2013-5-29,87,73,62,-100,-100,-100,0,0,100,0.00,40.00,0,-999,0,0.00
2013-5-30,91,76,58,-100,-100,-100,0,0,100,0.00,40.00,0,-999,0,0.00
2013-5-31,98,81,62,-100,-100,-100,0,0,100,0.00,40.00,0,-999,0,0.00
2013-6-1,101,88,66,-100,-100,-100,0,0,100,0.00,40.00,0,-999,0,0.00
2013-6-2,102,85,69,-100,-100,-100,0,0,100,0.00,40.00,0,-999,0,0.00
2013-6-3,91,76,64,-100,-100,-100,0,0,100,0.00,40.00,0,-999,0,0.00
2013-6-4,87,73,62,-100,-100,-100,0,0,100,0.00,40.00,0,-999,0,0.00
2013-6-5,91,71,59,-100,-100,-100,0,0,100,0.00,40.00,0,-999,0,0.00
2013-6-6,98,76,60,-100,-100,-100,0,0,100,0.00,40.00,0,-999,0,0.00
2013-6-7,109,81,64,-100,-100,-100,0,0,100,0.00,40.00,0,-999,0,0.00
2013-6-8,113,93,74,-100,-100,-100,0,0,100,0.00,40.00,0,-999,0,0.00
2013-6-9,82,72,65,-100,-100,-100,0,0,100,0.00,40.00,0,-999,0,0.00
2013-6-10,76,69,62,-100,-100,-100,0,0,100,0.00,40.00,0,-999,0,0.00
2013-6-11,89,76,61,-100,-100,-100,0,0,100,0.00,40.00,0,-999,0,0.00
2013-6-12,92,78,65,-100,-100,-100,0,0,100,0.00,40.00,0,-999,0,0.00
2013-6-13,91,77,59,-100,-100,-100,0,0,100,0.00,40.00,0,-999,0,0.00
2013-6-14,94,82,69,-100,-100,-100,0,0,100,0.00,40.00,0,-999,0,0.00
2013-6-15,94,81,65,-100,-100,-100,0,0,100,0.00,40.00,0,-999,0,0.00
2013-6-16,97,78,60,-100,-100,-100,0,0,100,0.00,40.00,0,-999,0,0.00
2013-6-17,91,77,64,-100,-100,-100,0,0,100,0.00,40.00,0,-999,0,0.00
2013-6-18,83,71,62,-100,-100,-100,0,0,100,0.00,40.00,0,-999,0,0.00
2013-6-19,86,73,58,-100,-100,-100,0,0,100,0.00,40.00,0,-999,0,0.00
2013-6-20,88,72,62,-100,-100,-100,0,0,100,0.00,40.00,0,-999,0,0.00
2013-6-22,100,91,69,-100,-100,-100,0,0,100,0.00,40.00,0,-999,0,0.00
2013-6-23,81,73,65,-100,-100,-100,0,0,100,0.00,40.00,0,-999,0,0.00
2013-6-26,94,82,68,-100,-100,-100,0,0,100,0.00,40.00,0,-999,0,0.00
2013-6-27,102,87,69,-100,-100,-100,0,0,100,0.00,40.00,0,-999,0,0.00
2013-6-28,109,99,75,-100,-100,-100,0,0,100,0.00,40.00,0,-999,0,0.00
2013-6-29,111,98,80,-100,-100,-100,0,0,100,0.00,40.00,0,-999,0,0.00
2013-6-30,112,97,76,-100,-100,-100,0,0,100,0.00,40.00,0,-999,0,0.00
2013-7-1,112,95,73,-100,-100,-100,0,0,100,0.00,40.00,0,-999,0,0.00
2013-7-2,109,94,78,-100,-100,-100,0,0,100,0.00,40.00,0,-999,0,0.00
2013-7-3,111,92,74,-100,-100,-100,0,0,100,0.00,40.00,0,-999,0,0.00
2013-7-4,113,90,80,-100,-100,-100,0,0,100,0.00,40.00,0,-999,0,0.00
2013-7-5,92,82,70,-100,-100,-100,0,0,100,0.00,40.00,0,-999,0,0.00
2013-7-9,107,95,69,-100,-100,-100,0,0,100,0.00,40.00,0,-999,0,0.00
2013-7-10,102,88,69,-100,-100,-100,0,0,100,0.00,40.00,0,-999,0,0.00
2013-7-11,96,83,61,-100,-100,-100,0,0,100,0.00,40.00,0,-999,0,0.00
2013-7-12,94,77,62,-100,-100,-100,0,0,100,0.00,40.00,0,-999,0,0.00
2013-7-13,101,92,69,-100,-100,-100,0,0,100,0.00,40.00,0,-999,0,0.00
2013-7-14,99,88,65,-100,-100,-100,0,0,100,0.00,40.00,0,-999,0,0.00
2013-7-15,91,72,62,-100,-100,-100,0,0,100,0.00,40.00,0,-999,0,0.00
2013-7-16,84,71,62,-100,-100,-100,0,0,100,0.00,40.00,0,-999,0,0.00
2013-7-17,98,82,62,-100,-100,-100,0,0,100,0.00,40.00,0,-999,0,0.00
2013-7-18,104,88,63,-100,-100,-100,0,0,100,0.00,40.00,0,-999,0,0.00
2013-7-19,106,90,66,-100,-100,-100,0,0,100,0.00,40.00,0,-999,0,0.00
2013-7-20,105,90,67,-100,-100,-100,0,0,100,0.00,40.00,0,-999,0,0.00
2013-7-21,100,86,68,-100,-100,-100,0,0,100,0.00,40.00,0,-999,0,0.00
2013-7-22,95,86,71,-100,-100,-100,0,0,100,0.00,40.00,0,-999,0,0.00
2013-7-23,97,85,74,-100,-100,-100,0,0,100,0.00,40.00,0,-999,0,0.00
2013-7-24,104,90,69,-100,-100,-100,0,0,100,0.00,40.00,0,-999,0,0.00
2013-7-25,102,88,73,-100,-100,-100,0,0,100,0.00,40.00,0,-999,0,0.00
2013-7-26,101,81,66,-100,-100,-100,0,0,100,0.00,40.00,0,-999,0,0.00
2013-7-27,98,81,64,-100,-100,-100,0,0,100,0.00,40.00,0,-999,0,0.00
2013-7-28,92,79,63,-100,-100,-100,0,0,100,0.00,40.00,0,-999,0,0.00
2013-7-29,87,72,61,-100,-100,-100,0,0,100,0.00,40.00,0,-999,0,0.00
2013-7-30,94,78,61,-100,-100,-100,0,0,100,0.00,40.00,0,-999,0,0.00
2013-7-31,94,79,62,-100,-100,-100,0,0,100,0.00,40.00,0,-999,0,0.00
2013-8-1,92,82,65,-100,-100,-100,0,0,100,0.00,40.00,0,-999,0,0.00
2013-8-2,98,83,66,-100,-100,-100,0,0,100,0.00,40.00,0,-999,0,0.00
2013-8-3,97,82,63,-100,-100,-100,0,0,100,0.00,40.00,0,-999,0,0.00
2013-8-4,94,81,63,-100,-100,-100,0,0,100,0.00,40.00,0,-999,0,0.00
2013-8-5,95,79,62,-100,-100,-100,0,0,100,0.00,40.00,0,-999,0,0.00
2013-8-6,89,74,60,-100,-100,-100,0,0,100,0.00,40.00,0,-999,0,0.00
2013-8-13,103,94,72,-100,-100,-100,0,0,100,0.00,40.00,0,-999,0,0.00
2013-8-14,102,94,74,-100,-100,-100,0,0,100,0.00,40.00,0,-999,0,0.00
2013-8-15,101,92,76,-100,-100,-100,0,0,100,0.00,40.00,0,-999,0,0.00
2013-8-16,101,92,71,-100,-100,-100,0,0,100,0.00,40.00,0,-999,0,0.00
2013-8-17,99,88,76,-100,-100,-100,0,0,100,0.00,40.00,0,-999,0,0.00
2013-8-18,105,96,74,-100,-100,-100,0,0,100,0.00,40.00,0,-999,0,0.00
2013-8-19,109,95,80,-100,-100,-100,0,0,100,0.00,40.00,0,-999,0,0.00
2013-8-20,99,81,71,-100,-100,-100,0,0,100,0.00,40.00,0,-999,0,0.00
2013-8-21,95,80,67,-100,-100,-100,0,0,100,0.00,40.00,0,-999,0,0.00
2013-8-22,91,79,64,-100,-100,-100,0,0,100,0.00,40.00,0,-999,0,0.00
2013-8-23,95,81,62,-100,-100,-100,0,0,100,0.00,40.00,0,-999,0,0.00
2013-8-24,94,82,69,-100,-100,-100,0,0,100,0.00,40.00,0,-999,0,0.00
2013-8-25,92,80,68,-100,-100,-100,0,0,100,0.00,40.00,0,-999,0,0.00
2013-8-26,94,76,66,-100,-100,-100,0,0,100,0.00,40.00,0,-999,0,0.00
2013-8-27,88,77,68,-100,-100,-100,0,0,100,0.00,40.00,0,-999,0,0.00
2013-8-28,98,91,81,-100,-100,-100,0,0,100,0.00,40.00,0,-999,0,0.00
2013-8-29,98,85,70,-100,-100,-100,0,0,100,0.00,40.00,0,-999,0,0.00
2013-9-4,94,83,68,-100,-100,-100,0,0,100,0.00,40.00,0,-999,0,0.00
2013-9-5,92,82,66,-100,-100,-100,0,0,100,0.00,40.00,0,-999,0,0.00
2013-9-6,97,85,69,-100,-100,-100,0,0,100,0.00,40.00,0,-999,0,0.00
2013-9-7,104,97,69,-100,-100,-100,0,0,100,0.00,40.00,0,-999,0,0.00
2013-9-8,105,95,84,-100,-100,-100,0,0,100,0.00,40.00,0,-999,0,0.00
2013-9-9,106,97,86,-100,-100,-100,0,0,100,0.00,40.00,0,-999,0,0.00
2013-9-10,93,80,69,-100,-100,-100,0,0,100,0.00,40.00,0,-999,0,0.00
2013-9-11,87,78,69,-100,-100,-100,0,0,100,0.00,40.00,0,-999,0,0.00
2013-9-12,94,78,65,-100,-100,-100,0,0,100,0.00,40.00,0,-999,0,0.00
2013-9-13,98,84,68,-100,-100,-100,0,0,100,0.00,40.00,0,-999,0,0.00
2013-9-14,93,80,65,-100,-100,-100,0,0,100,0.00,40.00,0,-999,0,0.00
2013-9-17,87,76,65,-100,-100,-100,0,0,100,0.00,40.00,0,-999,0,0.00
2013-9-19,97,84,63,-100,-100,-100,0,0,100,0.00,40.00,0,-999,0,0.00
2013-9-20,87,82,68,-100,-100,-100,0,0,100,0.00,40.00,0,-999,0,0.00
2013-9-21,74,68,64,-100,-100,-100,0,0,100,0.00,40.00,0,-999,0,0.00
2013-9-22,80,74,70,-100,-100,-100,0,0,100,0.00,40.00,0,-999,0,0.00
2013-9-23,88,81,70,-100,-100,-100,0,0,100,0.00,40.00,0,-999,0,0.00
2013-9-24,83,76,68,-100,-100,-100,0,0,100,0.00,40.00,0,-999,0,0.00
2013-9-25,78,72,63,-100,-100,-100,0,0,100,0.00,40.00,0,-999,0,0.00
2013-9-26,80,68,58,-100,-100,-100,0,0,100,0.00,40.00,0,-999,0,0.00
2013-9-27,84,76,57,-100,-100,-100,0,0,100,0.00,40.00,0,-999,0,0.00
2013-9-28,88,74,58,-100,-100,-100,0,0,100,0.00,40.00,0,-999,0,0.00
2013-9-29,83,75,62,-100,-100,-100,0,0,100,0.00,40.00,0,-999,0,0.00
2013-9-30,81,75,66,-100,-100,-100,0,0,100,0.00,40.00,0,-999,0,0.00
2013-10-1,82,82,82,-100,-100,-100,0,0,100,0.00,40.00,0,-999,0,0.00
2013-10-2,84,82,73,-100,-100,-100,0,0,100,0.00,40.00,0,-999,0,0.00
2013-10-22,90,81,66,-100,-100,-100,0,0,100,0.00,40.00,0,-999,0,0.00
2013-10-23,90,76,60,-100,-100,-100,0,0,100,0.00,40.00,0,-999,0,0.00
2013-10-24,76,70,56,-100,-100,-100,0,0,100,0.00,40.00,0,-999,0,0.00
2013-10-25,83,73,54,-100,-100,-100,0,0,100,0.00,40.00,0,-999,0,0.00
2013-10-26,86,79,55,-100,-100,-100,0,0,100,0.00,40.00,0,-999,0,0.00
2013-10-27,75,67,58,-100,-100,-100,0,0,100,0.00,40.00,0,-999,0,0.00
2013-10-28,71,66,54,-100,-100,-100,0,0,100,0.00,40.00,0,-999,0,0.00
2013-10-29,69,64,58,-100,-100,-100,0,0,100,0.00,40.00,0,-999,0,0.00
2013-10-30,73,70,60,-100,-100,-100,0,0,100,0.00,40.00,0,-999,0,0.00
2013-10-31,76,70,55,-100,-100,-100,0,0,100,0.00,40.00,0,-999,0,0.00
2013-11-1,81,78,72,-100,-100,-100,0,0,100,0.00,40.00,0,-999,0,0.00
2013-11-2,80,75,54,-100,-100,-100,0,0,100,0.00,40.00,0,-999,0,0.00
2013-11-3,69,63,55,-100,-100,-100,0,0,100,0.00,40.00,0,-999,0,0.00
2013-11-4,73,64,51,-100,-100,-100,0,0,100,0.00,40.00,0,-999,0,0.00
2013-11-7,81,79,76,-100,-100,-100,0,0,100,0.00,40.00,0,-999,0,0.00
2013-11-8,80,74,62,-100,-100,-100,0,0,100,0.00,40.00,0,-999,0,0.00
2013-11-9,80,79,78,-100,-100,-100,0,0,100,0.00,40.00,0,-999,0,0.00
2013-11-10,79,76,69,-100,-100,-100,0,0,100,0.00,40.00,0,-999,0,0.00
2013-11-11,76,68,53,-100,-100,-100,0,0,100,0.00,40.00,0,-999,0,0.00
2013-11-12,77,73,65,-100,-100,-100,0,0,100,0.00,40.00,0,-999,0,0.00
2013-11-13,82,76,60,-100,-100,-100,0,0,100,0.00,40.00,0,-999,0,0.00
2013-11-14,73,64,54,-100,-100,-100,0,0,100,0.00,40.00,0,-999,0,0.00
2013-11-15,73,68,53,-100,-100,-100,0,0,100,0.00,40.00,0,-999,0,0.00
2013-11-16,70,62,48,-100,-100,-100,0,0,100,0.00,40.00,0,-999,0,0.00
2013-11-17,69,56,47,-100,-100,-100,0,0,100,0.00,40.00,0,-999,0,0.00
2013-11-18,65,63,52,-100,-100,-100,0,0,100,0.00,40.00,0,-999,0,0.00
2013-11-19,68,64,57,-100,-100,-100,0,0,100,0.00,40.00,0,-999,0,0.00
2013-11-20,63,60,59,-100,-100,-100,0,0,100,0.00,40.00,0,-999,0,0.00
2013-11-21,67,61,54,-100,-100,-100,0,0,100,0.00,40.00,0,-999,0,0.00
2013-11-26,66,62,51,-100,-100,-100,0,0,100,0.00,40.00,0,-999,0,0.00
2013-11-27,67,61,54,-100,-100,-100,0,0,100,0.00,40.00,0,-999,0,0.00
2013-11-28,74,69,59,-100,-100,-100,0,0,100,0.00,40.00,0,-999,0,0.00
2013-11-29,73,70,59,-100,-100,-100,0,0,100,0.00,40.00,0,-999,0,0.00
2013-11-30,72,67,51,-100,-100,-100,0,0,100,0.00,40.00,0,-999,0,0.00
2013-12-1,70,61,48,-100,-100,-100,0,0,100,0.00,40.00,0,-999,0,0.00
2013-12-2,71,64,56,-100,-100,-100,0,0,100,0.00,40.00,0,-999,0,0.00
2013-12-3,61,56,48,-100,-100,-100,0,0,100,0.00,40.00,0,-999,0,0.00
2013-12-4,54,46,40,-100,-100,-100,0,0,100,0.00,40.00,0,-999,0,0.00
2013-12-5,54,46,35,-100,-100,-100,0,0,100,0.00,40.00,0,-999,0,0.00
2013-12-6,52,46,33,-100,-100,-100,0,0,100,0.00,40.00,0,-999,0,0.00
2013-12-12,62,57,47,-100,-100,-100,0,0,100,0.00,40.00,0,-999,0,0.00
2013-12-13,65,55,43,-100,-100,-100,0,0,100,0.00,40.00,0,-999,0,0.00
2013-12-14,65,57,43,-100,-100,-100,0,0,100,0.00,40.00,0,-999,0,0.00
2013-12-15,66,58,40,-100,-100,-100,0,0,100,0.00,40.00,0,-999,0,0.00
2013-12-16,69,55,42,-100,-100,-100,0,0,100,0.00,40.00,0,-999,0,0.00
2013-12-17,68,65,61,-100,-100,-100,0,0,100,0.00,40.00,0,-999,0,0.00
2013-12-18,63,56,46,-100,-100,-100,0,0,100,0.00,40.00,0,-999,0,0.00
2013-12-19,65,58,48,-100,-100,-100,0,0,100,0.00,40.00,0,-999,0,0.00
2013-12-20,63,53,44,-100,-100,-100,0,0,100,0.00,40.00,0,-999,0,0.00
2013-12-23,68,67,65,-100,-100,-100,0,0,100,0.00,40.00,0,-999,0,0.00
2013-12-24,69,62,49,-100,-100,-100,0,0,100,0.00,40.00,0,-999,0,0.00
2013-12-25,69,62,47,-100,-100,-100,0,0,100,0.00,40.00,0,-999,0,0.00
2013-12-26,71,64,47,-100,-100,-100,0,0,100,0.00,40.00,0,-999,0,0.00
2013-12-27,63,55,47,-100,-100,-100,0,0,100,0.00,40.00,0,-999,0,0.00
2013-12-28,70,59,40,-100,-100,-100,0,0,100,0.00,40.00,0,-999,0,0.00
2013-12-29,69,60,44,-100,-100,-100,0,0,100,0.00,40.00,0,-999,0,0.00
2013-12-30,67,57,44,-100,-100,-100,0,0,100,0.00,40.00,0,-999,0,0.00
2013-12-31,68,61,47,-100,-100,-100,0,0,100,0.00,40.00,0,-999,0,0.00
2014-1-1,65,55,40,-100,-100,-100,0,0,100,0.00,40.00,0,-999,0,0.00
2014-1-2,70,62,46,-100,-100,-100,0,0,100,0.00,40.00,0,-999,0,0.00